MST,Max TemperatureF,Mean TemperatureF,Min TemperatureF,Max Dew PointF,MeanDew PointF,Min DewpointF,Max Humidity, Mean Humidity, Min Humidity, Max Sea Level PressureIn, Mean Sea Level PressureIn, Min Sea Level PressureIn, Max VisibilityMiles, Mean VisibilityMiles, Min VisibilityMiles, Max Wind SpeedMPH, Mean Wind SpeedMPH, Max Gust SpeedMPH,PrecipitationIn, CloudCover, Events, WindDirDegrees
2013-2-1,52,35,18,30,22,15,95,72,24,30.18,30.09,30.00,10,10,10,30,6,43,0.00,2,,282
2013-2-2,54,34,15,28,19,11,95,60,18,30.29,30.25,30.19,10,10,10,22,6,30,0.00,0,,269
2013-2-3,48,34,19,22,15,8,84,52,23,30.25,30.02,29.87,10,10,10,20,7,20,0.00,0,,280
2013-2-4,58,39,20,18,12,7,65,41,13,29.97,29.91,29.83,10,10,10,15,9,24,0.00,0,,275
2013-2-5,55,37,19,20,17,14,78,43,24,30.08,29.95,29.85,10,10,10,16,6,22,0.00,0,,179
2013-2-6,55,42,29,24,20,16,71,45,27,30.07,29.87,29.80,10,10,10,24,6,30,0.00,4,,316
2013-2-7,49,34,18,24,18,12,94,60,23,30.18,30.11,30.05,10,10,10,14,8,20,0.00,0,,248
2013-2-8,54,38,21,22,18,14,77,53,26,30.05,29.84,29.69,10,10,10,12,5,16,0.00,0,,145
2013-2-9,42,32,21,23,20,14,91,70,46,29.70,29.59,29.50,10,10,10,24,10,30,0.00,1,,348
2013-2-10,36,25,14,21,16,8,80,63,39,30.06,29.79,29.53,10,10,10,33,23,45,0.00,4,,326
2013-2-11,32,22,11,21,13,8,92,72,43,30.09,30.03,29.98,10,10,4,15,5,18,0.00,4,,289
2013-2-12,43,24,6,13,7,2,92,56,18,30.04,30.01,29.98,10,10,10,16,7,24,0.00,0,,304
2013-2-13,53,32,10,26,12,6,83,51,19,30.03,29.95,29.88,10,10,10,30,11,41,0.00,0,,291
2013-2-14,33,26,20,25,17,8,86,67,46,30.28,30.16,30.00,10,10,1,28,8,36,0.00,6,,318
2013-2-15,34,27,20,22,18,13,96,74,42,30.30,30.27,30.22,10,9,2,26,8,34,0.00,6,,297
2013-2-16,58,36,15,22,15,10,89,53,15,30.21,30.07,29.96,10,10,10,16,8,26,0.00,0,,268
2013-2-17,64,43,22,24,12,-2,70,41,7,29.94,29.72,29.54,10,10,10,32,8,40,0.00,0,,293
2013-2-18,42,30,15,19,14,1,84,56,20,30.11,29.96,29.78,10,10,10,31,16,39,0.00,2,,329
2013-2-19,46,26,7,18,13,5,94,62,26,30.10,29.98,29.83,10,10,10,22,7,29,0.00,0,,104
2013-2-20,28,22,15,26,19,13,98,85,69,29.83,29.76,29.69,10,8,0,20,14,25,0.00,5,,87
2013-2-21,23,18,12,17,14,10,95,85,67,29.88,29.80,29.72,10,6,1,16,10,,0.00,7,,1
2013-2-22,33,17,1,22,13,-1,93,79,59,29.95,29.90,29.84,10,8,1,12,7,,0.00,1,,260
2013-2-23,43,29,15,25,19,9,88,60,32,29.85,29.68,29.62,10,10,10,9,5,,0.00,2,,127
2013-2-24,31,26,18,30,26,17,94,90,67,30.08,29.88,29.69,10,6,0,24,15,31,0.00,8,,1
2013-2-25,32,20,7,22,14,5,88,75,53,30.07,29.98,29.83,10,10,10,17,11,24,0.00,1,,285
2013-2-26,32,18,5,28,19,2,95,85,70,30.07,29.87,29.79,10,7,1,26,12,33,0.00,5,,306
2013-2-27,35,26,14,25,17,11,90,68,53,30.23,30.18,30.09,10,10,4,23,18,30,0.00,1,,327
2013-2-28,42,25,8,23,16,5,90,68,40,30.24,30.20,30.16,10,10,10,20,9,24,0.00,3,,297